sensor_id;sensor_type;location;lat;lon;timestamp;temperature;humidity
47174;DHT22;36730;49.036;9.094;2023-03-07T00:01:24;23.60;50.00
47174;DHT22;36730;49.036;9.094;2023-03-07T00:03:49;23.60;49.90
47174;DHT22;36730;49.036;9.094;2023-03-07T00:06:15;23.60;49.80
47174;DHT22;36730;49.036;9.094;2023-03-07T00:08:40;23.60;49.80
47174;DHT22;36730;49.036;9.094;2023-03-07T00:11:07;23.60;49.80
47174;DHT22;36730;49.036;9.094;2023-03-07T00:13:33;23.60;49.80
47174;DHT22;36730;49.036;9.094;2023-03-07T00:16:03;23.60;49.80
47174;DHT22;36730;49.036;9.094;2023-03-07T00:18:29;23.60;49.70
47174;DHT22;36730;49.036;9.094;2023-03-07T00:21:01;23.60;49.80
47174;DHT22;36730;49.036;9.094;2023-03-07T00:23:27;23.60;49.80
47174;DHT22;36730;49.036;9.094;2023-03-07T00:26:02;23.60;49.80
47174;DHT22;36730;49.036;9.094;2023-03-07T00:28:28;23.50;49.70
47174;DHT22;36730;49.036;9.094;2023-03-07T00:30:54;23.50;49.80
47174;DHT22;36730;49.036;9.094;2023-03-07T00:33:20;23.50;49.60
47174;DHT22;36730;49.036;9.094;2023-03-07T00:35:53;23.50;49.60
47174;DHT22;36730;49.036;9.094;2023-03-07T00:38:18;23.60;49.60
47174;DHT22;36730;49.036;9.094;2023-03-07T00:40:43;23.50;49.60
47174;DHT22;36730;49.036;9.094;2023-03-07T00:43:09;23.50;49.50
47174;DHT22;36730;49.036;9.094;2023-03-07T00:45:35;23.50;49.50
47174;DHT22;36730;49.036;9.094;2023-03-07T00:48:00;23.50;49.40
47174;DHT22;36730;49.036;9.094;2023-03-07T00:50:26;23.50;49.40
47174;DHT22;36730;49.036;9.094;2023-03-07T00:52:51;23.50;49.30
47174;DHT22;36730;49.036;9.094;2023-03-07T00:55:17;23.50;49.30
47174;DHT22;36730;49.036;9.094;2023-03-07T00:57:42;23.50;49.30
47174;DHT22;36730;49.036;9.094;2023-03-07T01:00:08;23.50;49.30
47174;DHT22;36730;49.036;9.094;2023-03-07T01:02:35;23.50;49.30
47174;DHT22;36730;49.036;9.094;2023-03-07T01:05:00;23.50;49.50
47174;DHT22;36730;49.036;9.094;2023-03-07T01:07:26;23.50;49.40
47174;DHT22;36730;49.036;9.094;2023-03-07T01:09:51;23.50;49.20
47174;DHT22;36730;49.036;9.094;2023-03-07T01:12:17;23.50;49.20
47174;DHT22;36730;49.036;9.094;2023-03-07T01:14:42;23.50;49.20
47174;DHT22;36730;49.036;9.094;2023-03-07T01:17:10;23.50;49.20
47174;DHT22;36730;49.036;9.094;2023-03-07T01:19:35;23.50;49.10
47174;DHT22;36730;49.036;9.094;2023-03-07T01:22:01;23.50;49.10
47174;DHT22;36730;49.036;9.094;2023-03-07T01:24:27;23.50;49.00
47174;DHT22;36730;49.036;9.094;2023-03-07T01:26:52;23.50;49.00
47174;DHT22;36730;49.036;9.094;2023-03-07T01:29:18;23.50;49.00
47174;DHT22;36730;49.036;9.094;2023-03-07T01:31:43;23.50;49.00
47174;DHT22;36730;49.036;9.094;2023-03-07T01:34:09;23.40;49.00
47174;DHT22;36730;49.036;9.094;2023-03-07T01:36:34;23.40;48.90
47174;DHT22;36730;49.036;9.094;2023-03-07T01:39:02;23.40;49.00
47174;DHT22;36730;49.036;9.094;2023-03-07T01:41:30;23.40;48.90
47174;DHT22;36730;49.036;9.094;2023-03-07T01:43:57;23.40;48.80
47174;DHT22;36730;49.036;9.094;2023-03-07T01:51:14;23.40;48.70
47174;DHT22;36730;49.036;9.094;2023-03-07T01:53:39;23.40;48.60
47174;DHT22;36730;49.036;9.094;2023-03-07T01:56:05;23.40;48.70
47174;DHT22;36730;49.036;9.094;2023-03-07T01:58:31;23.40;48.60
47174;DHT22;36730;49.036;9.094;2023-03-07T02:00:57;23.40;48.60
47174;DHT22;36730;49.036;9.094;2023-03-07T02:03:28;23.50;48.80
47174;DHT22;36730;49.036;9.094;2023-03-07T02:05:57;23.40;48.70
47174;DHT22;36730;49.036;9.094;2023-03-07T02:08:23;23.40;48.70
47174;DHT22;36730;49.036;9.094;2023-03-07T02:10:50;23.40;48.50
47174;DHT22;36730;49.036;9.094;2023-03-07T02:13:16;23.40;48.60
47174;DHT22;36730;49.036;9.094;2023-03-07T02:15:42;23.40;48.60
47174;DHT22;36730;49.036;9.094;2023-03-07T02:18:07;23.40;48.40
47174;DHT22;36730;49.036;9.094;2023-03-07T02:25:53;23.40;48.40
47174;DHT22;36730;49.036;9.094;2023-03-07T02:28:20;23.40;48.40
47174;DHT22;36730;49.036;9.094;2023-03-07T02:31:19;23.40;48.40
47174;DHT22;36730;49.036;9.094;2023-03-07T02:33:38;23.40;48.40
47174;DHT22;36730;49.036;9.094;2023-03-07T02:36:26;23.40;48.40
47174;DHT22;36730;49.036;9.094;2023-03-07T02:38:50;23.40;48.40
47174;DHT22;36730;49.036;9.094;2023-03-07T02:41:18;23.40;48.40
47174;DHT22;36730;49.036;9.094;2023-03-07T02:43:45;23.40;48.40
47174;DHT22;36730;49.036;9.094;2023-03-07T02:46:10;23.40;48.70
47174;DHT22;36730;49.036;9.094;2023-03-07T02:48:36;23.40;48.40
47174;DHT22;36730;49.036;9.094;2023-03-07T02:51:01;23.30;48.40
47174;DHT22;36730;49.036;9.094;2023-03-07T02:53:26;23.40;48.40
47174;DHT22;36730;49.036;9.094;2023-03-07T02:55:52;23.30;48.40
47174;DHT22;36730;49.036;9.094;2023-03-07T02:58:18;23.40;48.30
47174;DHT22;36730;49.036;9.094;2023-03-07T03:00:43;23.30;48.30
47174;DHT22;36730;49.036;9.094;2023-03-07T03:03:09;23.30;48.20
47174;DHT22;36730;49.036;9.094;2023-03-07T03:05:36;23.30;48.20
47174;DHT22;36730;49.036;9.094;2023-03-07T03:08:01;23.40;48.30
47174;DHT22;36730;49.036;9.094;2023-03-07T03:10:27;23.40;48.40
47174;DHT22;36730;49.036;9.094;2023-03-07T03:12:52;23.30;48.40
47174;DHT22;36730;49.036;9.094;2023-03-07T03:15:18;23.40;48.30
47174;DHT22;36730;49.036;9.094;2023-03-07T03:17:43;23.30;48.20
47174;DHT22;36730;49.036;9.094;2023-03-07T03:20:09;23.40;48.30
47174;DHT22;36730;49.036;9.094;2023-03-07T03:22:37;23.30;48.20
47174;DHT22;36730;49.036;9.094;2023-03-07T03:25:02;23.30;48.10
47174;DHT22;36730;49.036;9.094;2023-03-07T03:27:30;23.30;48.10
47174;DHT22;36730;49.036;9.094;2023-03-07T03:29:56;23.30;48.00
47174;DHT22;36730;49.036;9.094;2023-03-07T03:32:21;23.30;48.00
47174;DHT22;36730;49.036;9.094;2023-03-07T03:34:47;23.30;48.10
47174;DHT22;36730;49.036;9.094;2023-03-07T03:37:12;23.30;48.10
47174;DHT22;36730;49.036;9.094;2023-03-07T03:39:38;23.30;48.10
47174;DHT22;36730;49.036;9.094;2023-03-07T03:42:03;23.30;48.00
47174;DHT22;36730;49.036;9.094;2023-03-07T03:44:30;23.30;48.10
47174;DHT22;36730;49.036;9.094;2023-03-07T03:46:55;23.30;48.10
47174;DHT22;36730;49.036;9.094;2023-03-07T03:49:21;23.30;48.00
47174;DHT22;36730;49.036;9.094;2023-03-07T03:51:46;23.30;48.00
47174;DHT22;36730;49.036;9.094;2023-03-07T03:54:12;23.30;48.10
47174;DHT22;36730;49.036;9.094;2023-03-07T03:56:37;23.30;48.00
47174;DHT22;36730;49.036;9.094;2023-03-07T03:59:03;23.30;48.00
47174;DHT22;36730;49.036;9.094;2023-03-07T04:01:28;23.30;48.00
47174;DHT22;36730;49.036;9.094;2023-03-07T04:03:54;23.30;48.00
47174;DHT22;36730;49.036;9.094;2023-03-07T04:06:24;23.30;48.70
47174;DHT22;36730;49.036;9.094;2023-03-07T04:08:50;23.30;48.00
47174;DHT22;36730;49.036;9.094;2023-03-07T04:11:16;23.30;47.80
47174;DHT22;36730;49.036;9.094;2023-03-07T04:13:41;23.30;47.80
47174;DHT22;36730;49.036;9.094;2023-03-07T04:16:07;23.30;47.80
47174;DHT22;36730;49.036;9.094;2023-03-07T04:18:33;23.30;47.80
47174;DHT22;36730;49.036;9.094;2023-03-07T04:20:59;23.30;47.80
47174;DHT22;36730;49.036;9.094;2023-03-07T04:23:25;23.30;47.80
47174;DHT22;36730;49.036;9.094;2023-03-07T04:25:55;23.30;47.90
47174;DHT22;36730;49.036;9.094;2023-03-07T04:28:21;23.30;47.90
47174;DHT22;36730;49.036;9.094;2023-03-07T04:30:47;23.30;48.00
47174;DHT22;36730;49.036;9.094;2023-03-07T04:33:17;23.30;47.90
47174;DHT22;36730;49.036;9.094;2023-03-07T04:35:43;23.40;48.10
47174;DHT22;36730;49.036;9.094;2023-03-07T04:38:10;23.40;48.00
47174;DHT22;36730;49.036;9.094;2023-03-07T04:40:35;23.40;48.00
47174;DHT22;36730;49.036;9.094;2023-03-07T04:43:01;23.40;48.10
47174;DHT22;36730;49.036;9.094;2023-03-07T04:45:28;23.40;48.00
47174;DHT22;36730;49.036;9.094;2023-03-07T04:47:54;23.40;47.90
47174;DHT22;36730;49.036;9.094;2023-03-07T04:50:20;23.40;47.90
47174;DHT22;36730;49.036;9.094;2023-03-07T04:52:45;23.50;47.90
47174;DHT22;36730;49.036;9.094;2023-03-07T04:55:11;23.50;48.00
47174;DHT22;36730;49.036;9.094;2023-03-07T04:57:36;23.50;47.80
47174;DHT22;36730;49.036;9.094;2023-03-07T05:00:03;23.60;47.80
47174;DHT22;36730;49.036;9.094;2023-03-07T05:02:29;23.60;47.90
47174;DHT22;36730;49.036;9.094;2023-03-07T05:04:54;23.60;48.00
47174;DHT22;36730;49.036;9.094;2023-03-07T05:07:20;23.60;48.20
47174;DHT22;36730;49.036;9.094;2023-03-07T05:09:45;23.60;47.90
47174;DHT22;36730;49.036;9.094;2023-03-07T05:12:11;23.60;47.90
47174;DHT22;36730;49.036;9.094;2023-03-07T05:14:36;23.70;48.80
47174;DHT22;36730;49.036;9.094;2023-03-07T05:17:02;23.70;48.20
47174;DHT22;36730;49.036;9.094;2023-03-07T05:19:27;23.70;48.40
47174;DHT22;36730;49.036;9.094;2023-03-07T05:21:53;23.70;48.00
47174;DHT22;36730;49.036;9.094;2023-03-07T05:24:19;23.70;48.20
47174;DHT22;36730;49.036;9.094;2023-03-07T05:26:44;23.70;48.40
47174;DHT22;36730;49.036;9.094;2023-03-07T05:29:10;23.80;48.40
47174;DHT22;36730;49.036;9.094;2023-03-07T05:31:35;23.80;48.30
47174;DHT22;36730;49.036;9.094;2023-03-07T05:34:01;23.80;48.50
47174;DHT22;36730;49.036;9.094;2023-03-07T05:36:26;23.90;48.60
47174;DHT22;36730;49.036;9.094;2023-03-07T05:38:52;23.90;48.60
47174;DHT22;36730;49.036;9.094;2023-03-07T05:41:20;23.90;48.40
47174;DHT22;36730;49.036;9.094;2023-03-07T05:43:46;24.00;48.70
47174;DHT22;36730;49.036;9.094;2023-03-07T05:46:11;24.00;48.70
47174;DHT22;36730;49.036;9.094;2023-03-07T05:48:37;24.00;48.60
47174;DHT22;36730;49.036;9.094;2023-03-07T05:51:02;24.10;48.70
47174;DHT22;36730;49.036;9.094;2023-03-07T05:53:28;24.00;48.80
47174;DHT22;36730;49.036;9.094;2023-03-07T05:55:53;24.10;48.80
47174;DHT22;36730;49.036;9.094;2023-03-07T05:58:19;24.10;49.10
47174;DHT22;36730;49.036;9.094;2023-03-07T06:00:44;24.20;49.20
47174;DHT22;36730;49.036;9.094;2023-03-07T06:03:10;24.20;49.00
47174;DHT22;36730;49.036;9.094;2023-03-07T06:05:35;24.20;51.30
47174;DHT22;36730;49.036;9.094;2023-03-07T06:08:01;24.20;50.10
47174;DHT22;36730;49.036;9.094;2023-03-07T06:10:28;24.20;50.20
47174;DHT22;36730;49.036;9.094;2023-03-07T06:12:54;24.20;49.50
47174;DHT22;36730;49.036;9.094;2023-03-07T06:15:20;24.20;50.00
47174;DHT22;36730;49.036;9.094;2023-03-07T06:17:46;24.30;51.60
47174;DHT22;36730;49.036;9.094;2023-03-07T06:20:12;24.30;51.20
47174;DHT22;36730;49.036;9.094;2023-03-07T06:22:37;24.30;49.90
47174;DHT22;36730;49.036;9.094;2023-03-07T06:25:06;24.30;49.70
47174;DHT22;36730;49.036;9.094;2023-03-07T06:27:35;24.40;50.90
47174;DHT22;36730;49.036;9.094;2023-03-07T06:30:02;24.40;50.80
47174;DHT22;36730;49.036;9.094;2023-03-07T06:32:29;24.40;56.20
47174;DHT22;36730;49.036;9.094;2023-03-07T06:34:54;24.40;53.40
47174;DHT22;36730;49.036;9.094;2023-03-07T06:37:20;24.40;51.50
47174;DHT22;36730;49.036;9.094;2023-03-07T06:39:45;24.40;51.60
47174;DHT22;36730;49.036;9.094;2023-03-07T06:42:10;24.40;52.50
47174;DHT22;36730;49.036;9.094;2023-03-07T06:44:37;24.50;52.00
47174;DHT22;36730;49.036;9.094;2023-03-07T06:47:02;24.50;50.90
47174;DHT22;36730;49.036;9.094;2023-03-07T06:49:28;24.50;50.40
47174;DHT22;36730;49.036;9.094;2023-03-07T06:51:54;24.60;50.90
47174;DHT22;36730;49.036;9.094;2023-03-07T06:54:19;24.60;52.30
47174;DHT22;36730;49.036;9.094;2023-03-07T06:56:45;24.60;51.30
47174;DHT22;36730;49.036;9.094;2023-03-07T06:59:11;24.60;51.50
47174;DHT22;36730;49.036;9.094;2023-03-07T07:01:36;24.60;52.60
47174;DHT22;36730;49.036;9.094;2023-03-07T07:04:02;24.60;52.10
47174;DHT22;36730;49.036;9.094;2023-03-07T07:06:27;24.60;52.40
47174;DHT22;36730;49.036;9.094;2023-03-07T07:08:56;24.60;51.80
47174;DHT22;36730;49.036;9.094;2023-03-07T07:11:22;24.60;51.80
47174;DHT22;36730;49.036;9.094;2023-03-07T07:13:48;24.60;52.20
47174;DHT22;36730;49.036;9.094;2023-03-07T07:16:15;24.60;51.20
47174;DHT22;36730;49.036;9.094;2023-03-07T07:18:41;24.70;50.90
47174;DHT22;36730;49.036;9.094;2023-03-07T07:21:06;24.70;51.80
47174;DHT22;36730;49.036;9.094;2023-03-07T07:23:32;24.70;53.30
47174;DHT22;36730;49.036;9.094;2023-03-07T07:25:57;24.80;52.70
47174;DHT22;36730;49.036;9.094;2023-03-07T07:28:23;24.80;53.70
47174;DHT22;36730;49.036;9.094;2023-03-07T07:30:49;24.80;53.90
47174;DHT22;36730;49.036;9.094;2023-03-07T07:33:14;24.80;52.70
47174;DHT22;36730;49.036;9.094;2023-03-07T07:35:43;24.80;52.00
47174;DHT22;36730;49.036;9.094;2023-03-07T07:38:09;24.80;52.30
47174;DHT22;36730;49.036;9.094;2023-03-07T07:40:34;24.80;54.10
47174;DHT22;36730;49.036;9.094;2023-03-07T07:43:00;24.90;54.20
47174;DHT22;36730;49.036;9.094;2023-03-07T07:45:25;24.90;52.70
47174;DHT22;36730;49.036;9.094;2023-03-07T07:47:51;24.90;53.50
47174;DHT22;36730;49.036;9.094;2023-03-07T07:50:17;24.90;53.30
47174;DHT22;36730;49.036;9.094;2023-03-07T07:52:43;25.00;54.60
47174;DHT22;36730;49.036;9.094;2023-03-07T07:55:08;25.00;53.90
47174;DHT22;36730;49.036;9.094;2023-03-07T07:57:35;25.00;54.10
47174;DHT22;36730;49.036;9.094;2023-03-07T08:00:00;25.00;54.60
47174;DHT22;36730;49.036;9.094;2023-03-07T08:02:26;25.00;55.20
47174;DHT22;36730;49.036;9.094;2023-03-07T08:04:52;25.10;56.30
47174;DHT22;36730;49.036;9.094;2023-03-07T08:07:18;25.10;55.40
47174;DHT22;36730;49.036;9.094;2023-03-07T08:09:43;25.10;54.30
47174;DHT22;36730;49.036;9.094;2023-03-07T08:12:12;25.10;55.20
47174;DHT22;36730;49.036;9.094;2023-03-07T08:14:38;25.20;55.00
47174;DHT22;36730;49.036;9.094;2023-03-07T08:17:03;25.10;55.50
47174;DHT22;36730;49.036;9.094;2023-03-07T08:19:29;25.20;55.90
47174;DHT22;36730;49.036;9.094;2023-03-07T08:21:54;25.20;57.10
47174;DHT22;36730;49.036;9.094;2023-03-07T08:24:20;25.20;57.60
47174;DHT22;36730;49.036;9.094;2023-03-07T08:26:45;25.30;55.80
47174;DHT22;36730;49.036;9.094;2023-03-07T08:29:11;25.30;55.40
47174;DHT22;36730;49.036;9.094;2023-03-07T08:31:37;25.30;56.20
47174;DHT22;36730;49.036;9.094;2023-03-07T08:34:02;25.40;55.90
47174;DHT22;36730;49.036;9.094;2023-03-07T08:36:27;25.40;57.70
47174;DHT22;36730;49.036;9.094;2023-03-07T08:38:53;25.40;59.00
47174;DHT22;36730;49.036;9.094;2023-03-07T08:41:19;25.40;56.30
47174;DHT22;36730;49.036;9.094;2023-03-07T08:43:45;25.40;57.50
47174;DHT22;36730;49.036;9.094;2023-03-07T08:46:10;25.40;55.40
47174;DHT22;36730;49.036;9.094;2023-03-07T08:48:36;25.40;57.00
47174;DHT22;36730;49.036;9.094;2023-03-07T08:51:04;25.40;58.70
47174;DHT22;36730;49.036;9.094;2023-03-07T08:53:30;25.50;56.70
47174;DHT22;36730;49.036;9.094;2023-03-07T08:55:56;25.50;58.30
47174;DHT22;36730;49.036;9.094;2023-03-07T08:58:21;25.60;61.50
47174;DHT22;36730;49.036;9.094;2023-03-07T09:00:46;25.60;57.90
47174;DHT22;36730;49.036;9.094;2023-03-07T09:03:12;25.70;58.90
47174;DHT22;36730;49.036;9.094;2023-03-07T09:05:37;25.60;57.20
47174;DHT22;36730;49.036;9.094;2023-03-07T09:08:03;25.70;56.30
47174;DHT22;36730;49.036;9.094;2023-03-07T09:10:29;25.70;57.60
47174;DHT22;36730;49.036;9.094;2023-03-07T09:12:55;25.70;57.90
47174;DHT22;36730;49.036;9.094;2023-03-07T09:15:20;25.80;57.90
47174;DHT22;36730;49.036;9.094;2023-03-07T09:17:46;25.70;56.40
47174;DHT22;36730;49.036;9.094;2023-03-07T09:20:12;25.70;60.20
47174;DHT22;36730;49.036;9.094;2023-03-07T09:22:38;25.80;57.50
47174;DHT22;36730;49.036;9.094;2023-03-07T09:25:03;25.80;57.30
47174;DHT22;36730;49.036;9.094;2023-03-07T09:27:29;25.80;55.70
47174;DHT22;36730;49.036;9.094;2023-03-07T09:29:54;25.80;57.90
47174;DHT22;36730;49.036;9.094;2023-03-07T09:32:20;25.80;56.80
47174;DHT22;36730;49.036;9.094;2023-03-07T09:34:46;25.80;56.50
47174;DHT22;36730;49.036;9.094;2023-03-07T09:37:11;25.80;58.40
47174;DHT22;36730;49.036;9.094;2023-03-07T09:39:37;25.80;58.60
47174;DHT22;36730;49.036;9.094;2023-03-07T09:42:08;25.90;57.10
47174;DHT22;36730;49.036;9.094;2023-03-07T09:44:39;25.90;57.80
47174;DHT22;36730;49.036;9.094;2023-03-07T09:49:39;26.00;59.40
47174;DHT22;36730;49.036;9.094;2023-03-07T09:52:09;26.00;60.30
47174;DHT22;36730;49.036;9.094;2023-03-07T09:54:38;26.00;58.10
47174;DHT22;36730;49.036;9.094;2023-03-07T09:57:04;26.00;60.30
47174;DHT22;36730;49.036;9.094;2023-03-07T10:04:38;26.00;59.00
47174;DHT22;36730;49.036;9.094;2023-03-07T10:07:06;26.10;59.70
47174;DHT22;36730;49.036;9.094;2023-03-07T10:09:33;26.10;56.60
47174;DHT22;36730;49.036;9.094;2023-03-07T10:24:31;26.10;57.90
47174;DHT22;36730;49.036;9.094;2023-03-07T10:27:08;26.10;55.80
47174;DHT22;36730;49.036;9.094;2023-03-07T10:29:38;26.10;57.80
47174;DHT22;36730;49.036;9.094;2023-03-07T10:32:18;26.10;55.80
47174;DHT22;36730;49.036;9.094;2023-03-07T10:34:44;26.10;57.40
47174;DHT22;36730;49.036;9.094;2023-03-07T10:37:19;26.10;55.80
47174;DHT22;36730;49.036;9.094;2023-03-07T10:39:50;26.20;57.50
47174;DHT22;36730;49.036;9.094;2023-03-07T10:42:19;26.20;56.80
47174;DHT22;36730;49.036;9.094;2023-03-07T10:44:45;26.20;56.60
47174;DHT22;36730;49.036;9.094;2023-03-07T10:47:20;26.20;59.80
47174;DHT22;36730;49.036;9.094;2023-03-07T10:49:46;26.20;58.30
47174;DHT22;36730;49.036;9.094;2023-03-07T10:54:53;26.30;57.60
47174;DHT22;36730;49.036;9.094;2023-03-07T10:57:25;26.30;58.30
47174;DHT22;36730;49.036;9.094;2023-03-07T10:59:51;26.30;58.20
47174;DHT22;36730;49.036;9.094;2023-03-07T11:04:57;26.30;57.00
47174;DHT22;36730;49.036;9.094;2023-03-07T11:09:48;26.30;59.20
47174;DHT22;36730;49.036;9.094;2023-03-07T11:12:20;26.30;59.30
47174;DHT22;36730;49.036;9.094;2023-03-07T11:17:19;26.30;54.80
47174;DHT22;36730;49.036;9.094;2023-03-07T11:19:45;26.30;55.60
47174;DHT22;36730;49.036;9.094;2023-03-07T11:22:19;26.40;58.70
47174;DHT22;36730;49.036;9.094;2023-03-07T11:24:56;26.40;54.60
47174;DHT22;36730;49.036;9.094;2023-03-07T11:32:32;26.40;54.60
47174;DHT22;36730;49.036;9.094;2023-03-07T11:35:02;26.40;52.50
47174;DHT22;36730;49.036;9.094;2023-03-07T11:37:37;26.40;54.60
47174;DHT22;36730;49.036;9.094;2023-03-07T11:45:26;26.40;52.80
47174;DHT22;36730;49.036;9.094;2023-03-07T11:50:29;26.40;52.50
47174;DHT22;36730;49.036;9.094;2023-03-07T11:55:42;26.50;52.00
47174;DHT22;36730;49.036;9.094;2023-03-07T11:58:53;26.50;53.40
47174;DHT22;36730;49.036;9.094;2023-03-07T12:06:24;26.20;46.60
47174;DHT22;36730;49.036;9.094;2023-03-07T12:14:05;25.50;44.30
47174;DHT22;36730;49.036;9.094;2023-03-07T12:17:08;25.40;44.30
47174;DHT22;36730;49.036;9.094;2023-03-07T12:24:20;25.30;44.60
47174;DHT22;36730;49.036;9.094;2023-03-07T12:32:34;25.40;44.30
47174;DHT22;36730;49.036;9.094;2023-03-07T12:35:15;25.40;43.60
47174;DHT22;36730;49.036;9.094;2023-03-07T12:37:43;25.50;43.20
47174;DHT22;36730;49.036;9.094;2023-03-07T12:40:21;25.60;43.30
47174;DHT22;36730;49.036;9.094;2023-03-07T12:45:20;25.60;43.10
47174;DHT22;36730;49.036;9.094;2023-03-07T12:52:45;25.60;42.10
47174;DHT22;36730;49.036;9.094;2023-03-07T12:57:49;25.70;42.80
47174;DHT22;36730;49.036;9.094;2023-03-07T13:00:18;25.70;42.70
47174;DHT22;36730;49.036;9.094;2023-03-07T13:02:46;25.80;42.30
47174;DHT22;36730;49.036;9.094;2023-03-07T13:05:18;25.80;42.60
47174;DHT22;36730;49.036;9.094;2023-03-07T13:07:44;25.80;42.80
47174;DHT22;36730;49.036;9.094;2023-03-07T13:10:11;25.80;42.60
47174;DHT22;36730;49.036;9.094;2023-03-07T13:12:38;25.90;42.90
47174;DHT22;36730;49.036;9.094;2023-03-07T13:19:56;25.90;44.00
47174;DHT22;36730;49.036;9.094;2023-03-07T13:24:54;26.00;43.80
47174;DHT22;36730;49.036;9.094;2023-03-07T13:35:58;26.00;44.10
47174;DHT22;36730;49.036;9.094;2023-03-07T13:43:04;26.10;44.50
47174;DHT22;36730;49.036;9.094;2023-03-07T13:45:50;26.10;44.80
47174;DHT22;36730;49.036;9.094;2023-03-07T13:53:10;26.10;44.00
47174;DHT22;36730;49.036;9.094;2023-03-07T13:55:38;26.10;43.80
47174;DHT22;36730;49.036;9.094;2023-03-07T13:58:12;26.10;44.30
47174;DHT22;36730;49.036;9.094;2023-03-07T14:00:40;26.10;44.40
47174;DHT22;36730;49.036;9.094;2023-03-07T14:03:23;26.20;44.40
47174;DHT22;36730;49.036;9.094;2023-03-07T14:05:50;26.20;44.50
47174;DHT22;36730;49.036;9.094;2023-03-07T14:08:15;26.30;44.30
47174;DHT22;36730;49.036;9.094;2023-03-07T14:10:43;26.30;44.30
47174;DHT22;36730;49.036;9.094;2023-03-07T14:13:17;26.30;44.70
47174;DHT22;36730;49.036;9.094;2023-03-07T14:21:09;26.40;43.30
47174;DHT22;36730;49.036;9.094;2023-03-07T14:26:24;26.50;44.10
47174;DHT22;36730;49.036;9.094;2023-03-07T14:28:51;26.40;43.50
47174;DHT22;36730;49.036;9.094;2023-03-07T14:31:22;26.50;44.10
47174;DHT22;36730;49.036;9.094;2023-03-07T14:33:49;26.50;45.40
47174;DHT22;36730;49.036;9.094;2023-03-07T14:36:25;26.50;43.60
47174;DHT22;36730;49.036;9.094;2023-03-07T14:38:55;26.50;44.30
47174;DHT22;36730;49.036;9.094;2023-03-07T14:41:30;26.50;44.40
47174;DHT22;36730;49.036;9.094;2023-03-07T14:44:04;26.50;43.00
47174;DHT22;36730;49.036;9.094;2023-03-07T14:51:39;26.50;43.40
47174;DHT22;36730;49.036;9.094;2023-03-07T14:54:06;26.50;43.40
47174;DHT22;36730;49.036;9.094;2023-03-07T14:56:33;26.50;43.10
47174;DHT22;36730;49.036;9.094;2023-03-07T14:58:59;26.50;43.30
47174;DHT22;36730;49.036;9.094;2023-03-07T15:01:34;26.40;43.50
47174;DHT22;36730;49.036;9.094;2023-03-07T15:04:00;26.50;44.10
47174;DHT22;36730;49.036;9.094;2023-03-07T15:06:27;26.50;43.50
47174;DHT22;36730;49.036;9.094;2023-03-07T15:08:57;26.50;43.20
47174;DHT22;36730;49.036;9.094;2023-03-07T15:11:31;26.50;43.40
47174;DHT22;36730;49.036;9.094;2023-03-07T15:16:28;26.50;43.90
47174;DHT22;36730;49.036;9.094;2023-03-07T15:21:43;26.50;43.80
47174;DHT22;36730;49.036;9.094;2023-03-07T15:24:15;26.60;43.80
47174;DHT22;36730;49.036;9.094;2023-03-07T15:26:45;26.50;43.80
47174;DHT22;36730;49.036;9.094;2023-03-07T15:29:12;26.50;44.00
47174;DHT22;36730;49.036;9.094;2023-03-07T15:31:51;26.50;50.80
47174;DHT22;36730;49.036;9.094;2023-03-07T15:34:24;26.50;43.30
47174;DHT22;36730;49.036;9.094;2023-03-07T15:36:50;26.50;43.70
47174;DHT22;36730;49.036;9.094;2023-03-07T15:41:57;26.40;43.70
47174;DHT22;36730;49.036;9.094;2023-03-07T15:44:23;26.50;44.00
47174;DHT22;36730;49.036;9.094;2023-03-07T15:46:52;26.50;43.50
47174;DHT22;36730;49.036;9.094;2023-03-07T15:49:26;26.50;43.60
47174;DHT22;36730;49.036;9.094;2023-03-07T15:51:55;26.50;43.70
47174;DHT22;36730;49.036;9.094;2023-03-07T15:54:27;26.50;44.20
47174;DHT22;36730;49.036;9.094;2023-03-07T15:56:53;26.50;44.50
47174;DHT22;36730;49.036;9.094;2023-03-07T16:01:45;26.50;44.00
47174;DHT22;36730;49.036;9.094;2023-03-07T16:07:15;26.50;44.30
47174;DHT22;36730;49.036;9.094;2023-03-07T16:09:41;26.50;43.80
47174;DHT22;36730;49.036;9.094;2023-03-07T16:12:12;26.40;44.10
47174;DHT22;36730;49.036;9.094;2023-03-07T16:14:38;26.40;43.60
47174;DHT22;36730;49.036;9.094;2023-03-07T16:17:37;26.40;44.30
47174;DHT22;36730;49.036;9.094;2023-03-07T16:19:56;26.40;44.00
47174;DHT22;36730;49.036;9.094;2023-03-07T16:22:21;26.40;44.30
47174;DHT22;36730;49.036;9.094;2023-03-07T16:24:47;26.40;44.40
47174;DHT22;36730;49.036;9.094;2023-03-07T16:27:14;26.40;44.70
47174;DHT22;36730;49.036;9.094;2023-03-07T16:29:40;26.40;44.40
47174;DHT22;36730;49.036;9.094;2023-03-07T16:32:07;26.40;43.90
47174;DHT22;36730;49.036;9.094;2023-03-07T16:34:34;26.40;43.80
47174;DHT22;36730;49.036;9.094;2023-03-07T16:37:00;26.30;44.60
47174;DHT22;36730;49.036;9.094;2023-03-07T16:39:25;26.40;47.60
47174;DHT22;36730;49.036;9.094;2023-03-07T16:41:51;26.30;45.10
47174;DHT22;36730;49.036;9.094;2023-03-07T16:44:17;26.30;45.00
47174;DHT22;36730;49.036;9.094;2023-03-07T16:46:43;26.30;44.50
47174;DHT22;36730;49.036;9.094;2023-03-07T16:49:16;26.30;44.60
47174;DHT22;36730;49.036;9.094;2023-03-07T16:51:43;26.30;44.50
47174;DHT22;36730;49.036;9.094;2023-03-07T16:54:08;26.30;44.50
47174;DHT22;36730;49.036;9.094;2023-03-07T16:56:35;26.30;45.20
47174;DHT22;36730;49.036;9.094;2023-03-07T16:59:01;26.30;45.10
47174;DHT22;36730;49.036;9.094;2023-03-07T17:01:27;26.30;45.30
47174;DHT22;36730;49.036;9.094;2023-03-07T17:03:52;26.30;45.00
47174;DHT22;36730;49.036;9.094;2023-03-07T17:06:21;26.30;45.10
47174;DHT22;36730;49.036;9.094;2023-03-07T17:08:47;26.30;45.10
47174;DHT22;36730;49.036;9.094;2023-03-07T17:13:40;26.30;45.80
47174;DHT22;36730;49.036;9.094;2023-03-07T17:16:07;26.20;46.20
47174;DHT22;36730;49.036;9.094;2023-03-07T17:18:35;26.20;45.70
47174;DHT22;36730;49.036;9.094;2023-03-07T17:21:01;26.20;45.80
47174;DHT22;36730;49.036;9.094;2023-03-07T17:23:27;26.20;45.60
47174;DHT22;36730;49.036;9.094;2023-03-07T17:25:53;26.30;46.00
47174;DHT22;36730;49.036;9.094;2023-03-07T17:28:18;26.30;45.70
47174;DHT22;36730;49.036;9.094;2023-03-07T17:30:44;26.30;45.70
47174;DHT22;36730;49.036;9.094;2023-03-07T17:33:09;26.30;45.90
47174;DHT22;36730;49.036;9.094;2023-03-07T17:35:35;26.30;45.80
47174;DHT22;36730;49.036;9.094;2023-03-07T17:38:01;26.30;46.30
47174;DHT22;36730;49.036;9.094;2023-03-07T17:40:26;26.30;46.20
47174;DHT22;36730;49.036;9.094;2023-03-07T17:42:52;26.30;45.70
47174;DHT22;36730;49.036;9.094;2023-03-07T17:45:19;26.30;46.50
47174;DHT22;36730;49.036;9.094;2023-03-07T17:47:48;26.20;46.50
47174;DHT22;36730;49.036;9.094;2023-03-07T17:50:13;26.20;46.50
47174;DHT22;36730;49.036;9.094;2023-03-07T17:52:39;26.20;46.70